BKH Airport (Barking Sands Pmrf) Information

FAA: BKH - ICAO: PHBK

BKH Airport Location

State Hawaii
County Kauai
City Kekaha,Kauai
BKH Airport is 5 miles northwest of Kekaha,Kauai, HI.
Latitude 22-01-21.9730N
Longitude 159-47-06.2260W
Elevation 18ft

PHBK Airport METARs

METAR PHBK 200451Z AUTO 11004KT 10SM CLR 24/18 A3003 RMK AO2 SLP170 T02440183
Altimeter 30.03"
Temperature 24.4°C (75.9°F)
Wind 110° at 4KT
Clouds Skies are clear.
Visibility 10.0mi
Time observed: 2021-10-20T04:51:00Z

BKH Airport Details

Status Operational
Activation N/A
Ownership Military - Navy
Usage Private
Chart HAWAIIAN ISLANDS
ATC on-site Yes
Beacon schedule sunset-sunrise
Beacon color split clear green

BKH Airport Contacts

Owner US NAVY
Owner address OCEANOGRAPHIC OFC - CODE 3142, WASHINGTON, DC 20373
Owner phone N/A
Manager ANTONIO RAMON. BORJA
Manager address PO BOX 235, TINIAN, MP 96952-1055
Manager phone (670) 433-9294

BKH Airport (Barking Sands Pmrf) Radio Frequencies

BKH (Airport) Radio Frequencies

UNICOM 122.8
Common traffic advisory frequency (CTAF) N/A